sensor_id;sensor_type;location;lat;lon;timestamp;pressure;altitude;pressure_sealevel;temperature
28305;BMP280;15569;42.652;23.040;2023-07-30T00:01:46;92928.59;;;22.42
28305;BMP280;15569;42.652;23.040;2023-07-30T00:04:12;92925.81;;;22.40
28305;BMP280;15569;42.652;23.040;2023-07-30T00:06:37;92927.19;;;22.41
28305;BMP280;15569;42.652;23.040;2023-07-30T00:09:03;92922.31;;;22.37
28305;BMP280;15569;42.652;23.040;2023-07-30T00:11:30;92932.72;;;22.37
28305;BMP280;15569;42.652;23.040;2023-07-30T00:13:55;92924.41;;;22.33
28305;BMP280;15569;42.652;23.040;2023-07-30T00:16:21;92930.63;;;22.29
28305;BMP280;15569;42.652;23.040;2023-07-30T00:18:46;92929.22;;;22.28
28305;BMP280;15569;42.652;23.040;2023-07-30T00:21:11;92930.63;;;22.29
28305;BMP280;15569;42.652;23.040;2023-07-30T00:23:37;92929.22;;;22.28
28305;BMP280;15569;42.652;23.040;2023-07-30T00:26:02;92926.44;;;22.20
28305;BMP280;15569;42.652;23.040;2023-07-30T00:28:27;92929.94;;;22.25
28305;BMP280;15569;42.652;23.040;2023-07-30T00:30:53;92920.25;;;22.24
28305;BMP280;15569;42.652;23.040;2023-07-30T00:33:18;92917.44;;;22.18
28305;BMP280;15569;42.652;23.040;2023-07-30T00:35:43;92914.66;;;22.18
28305;BMP280;15569;42.652;23.040;2023-07-30T00:38:09;92909.13;;;22.10
28305;BMP280;15569;42.652;23.040;2023-07-30T00:40:40;92914.66;;;22.14
28305;BMP280;15569;42.652;23.040;2023-07-30T00:43:05;92911.19;;;22.11
28305;BMP280;15569;42.652;23.040;2023-07-30T00:45:31;92907.72;;;22.07
28305;BMP280;15569;42.652;23.040;2023-07-30T00:47:56;92920.88;;;22.04
28305;BMP280;15569;42.652;23.040;2023-07-30T00:50:22;92916.69;;;21.89
28305;BMP280;15569;42.652;23.040;2023-07-30T00:52:48;92908.38;;;21.91
28305;BMP280;15569;42.652;23.040;2023-07-30T00:55:14;92922.84;;;21.90
28305;BMP280;15569;42.652;23.040;2023-07-30T00:57:41;92913.19;;;21.85
28305;BMP280;15569;42.652;23.040;2023-07-30T01:00:07;92914.56;;;21.88
28305;BMP280;15569;42.652;23.040;2023-07-30T01:02:35;92919.41;;;21.87
28305;BMP280;15569;42.652;23.040;2023-07-30T01:05:01;92920.06;;;21.84
28305;BMP280;15569;42.652;23.040;2023-07-30T01:07:26;92923.56;;;21.88
28305;BMP280;15569;42.652;23.040;2023-07-30T01:09:52;92913.16;;;21.83
28305;BMP280;15569;42.652;23.040;2023-07-30T01:12:17;92916.63;;;21.81
28305;BMP280;15569;42.652;23.040;2023-07-30T01:14:45;92915.25;;;21.80
28305;BMP280;15569;42.652;23.040;2023-07-30T01:17:11;92909.69;;;21.76
28305;BMP280;15569;42.652;23.040;2023-07-30T01:19:37;92911.75;;;21.78
28305;BMP280;15569;42.652;23.040;2023-07-30T01:22:03;92918.66;;;21.75
28305;BMP280;15569;42.652;23.040;2023-07-30T01:24:28;92914.53;;;21.78
28305;BMP280;15569;42.652;23.040;2023-07-30T01:27:01;92907.63;;;21.81
28305;BMP280;15569;42.652;23.040;2023-07-30T01:29:40;92924.88;;;21.75
28305;BMP280;15569;42.652;23.040;2023-07-30T01:32:07;92919.31;;;21.67
28305;BMP280;15569;42.652;23.040;2023-07-30T01:34:37;92918.66;;;21.69
28305;BMP280;15569;42.652;23.040;2023-07-30T01:37:10;92923.50;;;21.72
28305;BMP280;15569;42.652;23.040;2023-07-30T01:39:37;92901.34;;;21.68
28305;BMP280;15569;42.652;23.040;2023-07-30T01:42:04;92907.56;;;21.71
28305;BMP280;15569;42.652;23.040;2023-07-30T01:44:30;92915.16;;;21.66
28305;BMP280;15569;42.652;23.040;2023-07-30T01:46:55;92926.91;;;21.63
28305;BMP280;15569;42.652;23.040;2023-07-30T01:49:21;92924.13;;;21.58
28305;BMP280;15569;42.652;23.040;2023-07-30T01:51:46;92930.38;;;21.61
28305;BMP280;15569;42.652;23.040;2023-07-30T01:54:11;92926.22;;;21.64
28305;BMP280;15569;42.652;23.040;2023-07-30T01:56:37;92928.97;;;21.58
28305;BMP280;15569;42.652;23.040;2023-07-30T01:59:02;92927.53;;;21.55
28305;BMP280;15569;42.652;23.040;2023-07-30T02:01:28;92931.72;;;21.60
28305;BMP280;15569;42.652;23.040;2023-07-30T02:03:53;92927.59;;;21.61
28305;BMP280;15569;42.652;23.040;2023-07-30T02:06:18;92922.69;;;21.51
28305;BMP280;15569;42.652;23.040;2023-07-30T02:08:44;92922.03;;;21.53
28305;BMP280;15569;42.652;23.040;2023-07-30T02:11:09;92925.53;;;21.63
28305;BMP280;15569;42.652;23.040;2023-07-30T02:13:34;92920.72;;;21.70
28305;BMP280;15569;42.652;23.040;2023-07-30T02:16:00;92926.97;;;21.79
28305;BMP280;15569;42.652;23.040;2023-07-30T02:18:25;92925.63;;;21.84
28305;BMP280;15569;42.652;23.040;2023-07-30T02:20:50;92924.25;;;21.85
28305;BMP280;15569;42.652;23.040;2023-07-30T02:23:16;92920.75;;;21.82
28305;BMP280;15569;42.652;23.040;2023-07-30T02:25:41;92931.22;;;21.92
28305;BMP280;15569;42.652;23.040;2023-07-30T02:28:07;92925.66;;;21.96
28305;BMP280;15569;42.652;23.040;2023-07-30T02:30:33;92927.75;;;21.95
28305;BMP280;15569;42.652;23.040;2023-07-30T02:32:59;92929.84;;;22.03
28305;BMP280;15569;42.652;23.040;2023-07-30T02:35:24;92926.41;;;22.04
28305;BMP280;15569;42.652;23.040;2023-07-30T02:37:50;92926.44;;;22.12
28305;BMP280;15569;42.652;23.040;2023-07-30T02:40:15;92931.25;;;22.14
28305;BMP280;15569;42.652;23.040;2023-07-30T02:42:41;92929.22;;;22.18
28305;BMP280;15569;42.652;23.040;2023-07-30T02:45:06;92928.53;;;22.22
28305;BMP280;15569;42.652;23.040;2023-07-30T02:47:32;92928.53;;;22.26
28305;BMP280;15569;42.652;23.040;2023-07-30T02:49:57;92934.09;;;22.30
28305;BMP280;15569;42.652;23.040;2023-07-30T02:52:22;92932.00;;;22.32
28305;BMP280;15569;42.652;23.040;2023-07-30T02:54:48;92930.63;;;22.31
28305;BMP280;15569;42.652;23.040;2023-07-30T02:57:13;92941.03;;;22.33
28305;BMP280;15569;42.652;23.040;2023-07-30T02:59:38;92934.13;;;22.34
28305;BMP280;15569;42.652;23.040;2023-07-30T03:02:05;92939.63;;;22.36
28305;BMP280;15569;42.652;23.040;2023-07-30T03:04:31;92939.66;;;22.40
28305;BMP280;15569;42.652;23.040;2023-07-30T03:06:57;92941.72;;;22.41
28305;BMP280;15569;42.652;23.040;2023-07-30T03:09:22;92936.19;;;22.39
28305;BMP280;15569;42.652;23.040;2023-07-30T03:11:49;92943.13;;;22.42
28305;BMP280;15569;42.652;23.040;2023-07-30T03:14:15;92935.53;;;22.43
28305;BMP280;15569;42.652;23.040;2023-07-30T03:16:40;92937.59;;;22.44
28305;BMP280;15569;42.652;23.040;2023-07-30T03:19:06;92932.72;;;22.41
28305;BMP280;15569;42.652;23.040;2023-07-30T03:21:31;92932.75;;;22.43
28305;BMP280;15569;42.652;23.040;2023-07-30T03:23:56;92935.53;;;22.43
28305;BMP280;15569;42.652;23.040;2023-07-30T03:26:22;92927.88;;;22.39
28305;BMP280;15569;42.652;23.040;2023-07-30T03:28:47;92930.63;;;22.43
28305;BMP280;15569;42.652;23.040;2023-07-30T03:31:12;92925.09;;;22.39
28305;BMP280;15569;42.652;23.040;2023-07-30T03:33:38;92928.59;;;22.40
28305;BMP280;15569;42.652;23.040;2023-07-30T03:36:04;92939.66;;;22.46
28305;BMP280;15569;42.652;23.040;2023-07-30T03:38:30;92938.28;;;22.45
28305;BMP280;15569;42.652;23.040;2023-07-30T03:40:55;92934.13;;;22.42
28305;BMP280;15569;42.652;23.040;2023-07-30T03:43:21;92936.88;;;22.44
28305;BMP280;15569;42.652;23.040;2023-07-30T03:45:46;92940.34;;;22.44
28305;BMP280;15569;42.652;23.040;2023-07-30T03:48:13;92943.13;;;22.44
28305;BMP280;15569;42.652;23.040;2023-07-30T03:50:39;92941.75;;;22.45
28305;BMP280;15569;42.652;23.040;2023-07-30T03:53:04;92945.22;;;22.48
28305;BMP280;15569;42.652;23.040;2023-07-30T03:55:30;92934.81;;;22.46
28305;BMP280;15569;42.652;23.040;2023-07-30T03:57:55;92932.72;;;22.47
28305;BMP280;15569;42.652;23.040;2023-07-30T04:00:21;92941.09;;;22.57
28305;BMP280;15569;42.652;23.040;2023-07-30T04:02:46;92941.09;;;22.63
28305;BMP280;15569;42.652;23.040;2023-07-30T04:05:11;92949.41;;;22.69
28305;BMP280;15569;42.652;23.040;2023-07-30T04:07:37;92948.69;;;22.70
28305;BMP280;15569;42.652;23.040;2023-07-30T04:10:02;92953.56;;;22.78
28305;BMP280;15569;42.652;23.040;2023-07-30T04:12:28;92959.09;;;22.82
28305;BMP280;15569;42.652;23.040;2023-07-30T04:14:53;92950.81;;;22.86
28305;BMP280;15569;42.652;23.040;2023-07-30T04:17:19;92950.13;;;22.89
28305;BMP280;15569;42.652;23.040;2023-07-30T04:19:44;92950.09;;;22.91
28305;BMP280;15569;42.652;23.040;2023-07-30T04:22:09;92954.97;;;22.97
28305;BMP280;15569;42.652;23.040;2023-07-30T04:24:35;92954.97;;;23.01
28305;BMP280;15569;42.652;23.040;2023-07-30T04:27:00;92959.13;;;23.06
28305;BMP280;15569;42.652;23.040;2023-07-30T04:29:26;92957.75;;;23.09
28305;BMP280;15569;42.652;23.040;2023-07-30T04:31:51;92966.03;;;23.15
28305;BMP280;15569;42.652;23.040;2023-07-30T04:34:16;92966.03;;;23.21
28305;BMP280;15569;42.652;23.040;2023-07-30T04:36:42;92962.56;;;23.25
28305;BMP280;15569;42.652;23.040;2023-07-30T04:39:07;92963.28;;;23.31
28305;BMP280;15569;42.652;23.040;2023-07-30T04:41:33;92973.66;;;23.37
28305;BMP280;15569;42.652;23.040;2023-07-30T04:43:58;92967.41;;;23.42
28305;BMP280;15569;42.652;23.040;2023-07-30T04:46:24;92977.13;;;23.49
28305;BMP280;15569;42.652;23.040;2023-07-30T04:48:50;92977.09;;;23.53
28305;BMP280;15569;42.652;23.040;2023-07-30T04:51:16;92971.53;;;23.57
28305;BMP280;15569;42.652;23.040;2023-07-30T04:53:41;92975.69;;;23.62
28305;BMP280;15569;42.652;23.040;2023-07-30T04:56:06;92977.75;;;23.66
28305;BMP280;15569;42.652;23.040;2023-07-30T04:58:32;92971.53;;;23.69
28305;BMP280;15569;42.652;23.040;2023-07-30T05:00:57;92966.66;;;23.76
28305;BMP280;15569;42.652;23.040;2023-07-30T05:03:22;92970.78;;;23.81
28305;BMP280;15569;42.652;23.040;2023-07-30T05:05:48;92961.75;;;23.86
28305;BMP280;15569;42.652;23.040;2023-07-30T05:08:13;92953.41;;;23.92
28305;BMP280;15569;42.652;23.040;2023-07-30T05:10:39;92961.69;;;24.02
28305;BMP280;15569;42.652;23.040;2023-07-30T05:13:04;92956.09;;;24.12
28305;BMP280;15569;42.652;23.040;2023-07-30T05:15:29;92962.31;;;24.19
28305;BMP280;15569;42.652;23.040;2023-07-30T05:17:55;92958.13;;;24.26
28305;BMP280;15569;42.652;23.040;2023-07-30T05:20:20;92962.91;;;24.36
28305;BMP280;15569;42.652;23.040;2023-07-30T05:22:45;92954.50;;;24.46
28305;BMP280;15569;42.652;23.040;2023-07-30T05:25:11;92957.97;;;24.52
28305;BMP280;15569;42.652;23.040;2023-07-30T05:27:37;92964.19;;;24.55
28305;BMP280;15569;42.652;23.040;2023-07-30T05:30:02;92960.72;;;24.56
28305;BMP280;15569;42.652;23.040;2023-07-30T05:32:28;92965.75;;;24.25
28305;BMP280;15569;42.652;23.040;2023-07-30T05:34:53;92973.53;;;23.97
28305;BMP280;15569;42.652;23.040;2023-07-30T05:37:19;92971.38;;;24.09
28305;BMP280;15569;42.652;23.040;2023-07-30T05:39:44;92972.03;;;24.14
28305;BMP280;15569;42.652;23.040;2023-07-30T05:42:09;92967.84;;;24.21
28305;BMP280;15569;42.652;23.040;2023-07-30T05:44:35;92967.06;;;24.37
28305;BMP280;15569;42.652;23.040;2023-07-30T05:47:00;92969.91;;;24.30
28305;BMP280;15569;42.652;23.040;2023-07-30T05:49:25;92974.03;;;24.31
28305;BMP280;15569;42.652;23.040;2023-07-30T05:51:51;92967.06;;;24.37
28305;BMP280;15569;42.652;23.040;2023-07-30T05:54:16;92970.50;;;24.47
28305;BMP280;15569;42.652;23.040;2023-07-30T05:56:42;92971.25;;;24.36
28305;BMP280;15569;42.652;23.040;2023-07-30T05:59:07;92969.06;;;24.56
28305;BMP280;15569;42.652;23.040;2023-07-30T06:03:58;92970.91;;;24.90
28305;BMP280;15569;42.652;23.040;2023-07-30T06:06:23;92975.00;;;24.97
28305;BMP280;15569;42.652;23.040;2023-07-30T06:08:53;92981.19;;;25.07
28305;BMP280;15569;42.652;23.040;2023-07-30T06:11:19;92972.19;;;25.07
28305;BMP280;15569;42.652;23.040;2023-07-30T06:13:44;92965.81;;;25.18
28305;BMP280;15569;42.652;23.040;2023-07-30T06:16:10;92967.88;;;25.20
28305;BMP280;15569;42.652;23.040;2023-07-30T06:18:35;92970.63;;;25.24
28305;BMP280;15569;42.652;23.040;2023-07-30T06:21:01;92970.53;;;25.36
28305;BMP280;15569;42.652;23.040;2023-07-30T06:23:26;92964.81;;;25.48
28305;BMP280;15569;42.652;23.040;2023-07-30T06:25:51;92968.84;;;25.61
28305;BMP280;15569;42.652;23.040;2023-07-30T06:28:17;92965.25;;;25.74
28305;BMP280;15569;42.652;23.040;2023-07-30T06:30:43;92971.44;;;25.81
28305;BMP280;15569;42.652;23.040;2023-07-30T06:33:09;92958.09;;;25.92
28305;BMP280;15569;42.652;23.040;2023-07-30T06:35:35;92962.31;;;25.84
28305;BMP280;15569;42.652;23.040;2023-07-30T06:38:00;92957.59;;;25.75
28305;BMP280;15569;42.652;23.040;2023-07-30T06:40:25;92963.81;;;25.77
28305;BMP280;15569;42.652;23.040;2023-07-30T06:42:51;92948.19;;;25.42
28305;BMP280;15569;42.652;23.040;2023-07-30T06:45:17;92941.28;;;25.35
28305;BMP280;15569;42.652;23.040;2023-07-30T06:47:42;92943.97;;;25.45
28305;BMP280;15569;42.652;23.040;2023-07-30T06:50:07;92948.66;;;25.66
28305;BMP280;15569;42.652;23.040;2023-07-30T06:52:36;92935.16;;;25.85
28305;BMP280;15569;42.652;23.040;2023-07-30T06:55:02;92944.00;;;26.04
28305;BMP280;15569;42.652;23.040;2023-07-30T06:57:31;92941.13;;;26.10
28305;BMP280;15569;42.652;23.040;2023-07-30T06:59:56;92936.16;;;26.16
28305;BMP280;15569;42.652;23.040;2023-07-30T07:02:23;92939.41;;;26.33
28305;BMP280;15569;42.652;23.040;2023-07-30T07:04:48;92930.94;;;26.43
28305;BMP280;15569;42.652;23.040;2023-07-30T07:07:14;92938.56;;;26.46
28305;BMP280;15569;42.652;23.040;2023-07-30T07:09:39;92930.22;;;26.42
28305;BMP280;15569;42.652;23.040;2023-07-30T07:12:06;92925.88;;;26.55
28305;BMP280;15569;42.652;23.040;2023-07-30T07:14:31;92926.75;;;26.44
28305;BMP280;15569;42.652;23.040;2023-07-30T07:16:57;92931.47;;;26.53
28305;BMP280;15569;42.652;23.040;2023-07-30T07:19:22;92924.66;;;26.42
28305;BMP280;15569;42.652;23.040;2023-07-30T07:21:48;92928.53;;;26.63
28305;BMP280;15569;42.652;23.040;2023-07-30T07:24:13;92918.53;;;26.78
28305;BMP280;15569;42.652;23.040;2023-07-30T07:26:39;92919.16;;;26.83
28305;BMP280;15569;42.652;23.040;2023-07-30T07:29:04;92915.56;;;26.88
28305;BMP280;15569;42.652;23.040;2023-07-30T07:31:29;92909.50;;;26.74
28305;BMP280;15569;42.652;23.040;2023-07-30T07:33:55;92908.50;;;26.95
28305;BMP280;15569;42.652;23.040;2023-07-30T07:36:20;92914.59;;;27.06
28305;BMP280;15569;42.652;23.040;2023-07-30T07:38:46;92903.41;;;27.06
28305;BMP280;15569;42.652;23.040;2023-07-30T07:41:16;92908.13;;;27.17
28305;BMP280;15569;42.652;23.040;2023-07-30T07:43:46;92898.88;;;27.25
28305;BMP280;15569;42.652;23.040;2023-07-30T07:46:12;92907.09;;;27.33
28305;BMP280;15569;42.652;23.040;2023-07-30T07:48:40;92909.75;;;27.02
28305;BMP280;15569;42.652;23.040;2023-07-30T07:51:06;92911.59;;;27.16
28305;BMP280;15569;42.652;23.040;2023-07-30T07:53:32;92908.13;;;27.15
28305;BMP280;15569;42.652;23.040;2023-07-30T07:55:57;92911.09;;;27.05
28305;BMP280;15569;42.652;23.040;2023-07-30T07:58:23;92902.84;;;26.99
28305;BMP280;15569;42.652;23.040;2023-07-30T08:00:48;92904.28;;;26.96
28305;BMP280;15569;42.652;23.040;2023-07-30T08:03:14;92895.81;;;27.02
28305;BMP280;15569;42.652;23.040;2023-07-30T08:05:39;92904.88;;;27.03
28305;BMP280;15569;42.652;23.040;2023-07-30T08:08:04;92900.75;;;26.98
28305;BMP280;15569;42.652;23.040;2023-07-30T08:10:30;92893.03;;;27.00
28305;BMP280;15569;42.652;23.040;2023-07-30T08:12:55;92898.63;;;27.00
28305;BMP280;15569;42.652;23.040;2023-07-30T08:15:21;92895.50;;;27.18
28305;BMP280;15569;42.652;23.040;2023-07-30T08:17:46;92901.09;;;27.18
28305;BMP280;15569;42.652;23.040;2023-07-30T08:20:12;92894.69;;;27.26
28305;BMP280;15569;42.652;23.040;2023-07-30T08:22:37;92896.94;;;27.17
28305;BMP280;15569;42.652;23.040;2023-07-30T08:25:03;92903.41;;;27.06
28305;BMP280;15569;42.652;23.040;2023-07-30T08:27:29;92889.91;;;27.20
28305;BMP280;15569;42.652;23.040;2023-07-30T08:29:54;92891.56;;;27.44
28305;BMP280;15569;42.652;23.040;2023-07-30T08:32:19;92891.09;;;27.66
28305;BMP280;15569;42.652;23.040;2023-07-30T08:34:45;92888.00;;;27.82
28305;BMP280;15569;42.652;23.040;2023-07-30T08:37:10;92896.38;;;27.82
28305;BMP280;15569;42.652;23.040;2023-07-30T08:39:36;92885.72;;;27.56
28305;BMP280;15569;42.652;23.040;2023-07-30T08:42:02;92883.66;;;27.54
28305;BMP280;15569;42.652;23.040;2023-07-30T08:44:28;92884.34;;;27.55
28305;BMP280;15569;42.652;23.040;2023-07-30T08:46:54;92881.38;;;27.63
28305;BMP280;15569;42.652;23.040;2023-07-30T08:49:19;92875.06;;;27.64
28305;BMP280;15569;42.652;23.040;2023-07-30T08:51:46;92880.19;;;27.87
28305;BMP280;15569;42.652;23.040;2023-07-30T08:54:14;92867.66;;;28.16
28305;BMP280;15569;42.652;23.040;2023-07-30T08:56:41;92871.50;;;28.01
28305;BMP280;15569;42.652;23.040;2023-07-30T08:59:07;92868.28;;;28.21
28305;BMP280;15569;42.652;23.040;2023-07-30T09:01:37;92872.66;;;28.42
28305;BMP280;15569;42.652;23.040;2023-07-30T09:04:04;92868.75;;;28.60
28305;BMP280;15569;42.652;23.040;2023-07-30T09:06:30;92872.56;;;28.75
28305;BMP280;15569;42.652;23.040;2023-07-30T09:08:56;92868.22;;;28.80
28305;BMP280;15569;42.652;23.040;2023-07-30T09:11:25;92866.59;;;28.89
28305;BMP280;15569;42.652;23.040;2023-07-30T09:13:53;92875.03;;;28.87
28305;BMP280;15569;42.652;23.040;2023-07-30T09:16:18;92860.78;;;28.97
28305;BMP280;15569;42.652;23.040;2023-07-30T09:18:45;92861.41;;;28.99
28305;BMP280;15569;42.652;23.040;2023-07-30T09:21:14;92863.34;;;29.07
28305;BMP280;15569;42.652;23.040;2023-07-30T09:23:43;92861.63;;;29.18
28305;BMP280;15569;42.652;23.040;2023-07-30T09:26:09;92863.25;;;29.35
28305;BMP280;15569;42.652;23.040;2023-07-30T09:28:35;92859.91;;;29.29
28305;BMP280;15569;42.652;23.040;2023-07-30T09:31:05;92854.94;;;29.56
28305;BMP280;15569;42.652;23.040;2023-07-30T09:33:31;92848.75;;;29.76
28305;BMP280;15569;42.652;23.040;2023-07-30T09:35:57;92849.69;;;29.68
28305;BMP280;15569;42.652;23.040;2023-07-30T09:38:22;92846.38;;;29.62
28305;BMP280;15569;42.652;23.040;2023-07-30T09:40:49;92850.28;;;29.73
28305;BMP280;15569;42.652;23.040;2023-07-30T09:43:15;92846.22;;;29.91
28305;BMP280;15569;42.652;23.040;2023-07-30T09:45:44;92840.06;;;29.86
28305;BMP280;15569;42.652;23.040;2023-07-30T09:48:10;92838.63;;;29.87
28305;BMP280;15569;42.652;23.040;2023-07-30T09:50:36;92846.53;;;29.56
28305;BMP280;15569;42.652;23.040;2023-07-30T09:53:03;92835.25;;;29.35
28305;BMP280;15569;42.652;23.040;2023-07-30T09:55:28;92837.88;;;29.41
28305;BMP280;15569;42.652;23.040;2023-07-30T09:57:54;92836.88;;;29.51
28305;BMP280;15569;42.652;23.040;2023-07-30T10:00:19;92830.44;;;29.32
28305;BMP280;15569;42.652;23.040;2023-07-30T10:02:46;92829.25;;;29.25
28305;BMP280;15569;42.652;23.040;2023-07-30T10:05:15;92816.84;;;29.18
28305;BMP280;15569;42.652;23.040;2023-07-30T10:07:44;92821.94;;;29.36
28305;BMP280;15569;42.652;23.040;2023-07-30T10:10:11;92809.19;;;29.41
28305;BMP280;15569;42.652;23.040;2023-07-30T10:12:38;92805.97;;;29.55
28305;BMP280;15569;42.652;23.040;2023-07-30T10:15:06;92808.69;;;29.82
28305;BMP280;15569;42.652;23.040;2023-07-30T10:17:32;92810.47;;;29.68
28305;BMP280;15569;42.652;23.040;2023-07-30T10:22:46;92799.75;;;30.41
28305;BMP280;15569;42.652;23.040;2023-07-30T10:25:12;92799.41;;;30.51
28305;BMP280;15569;42.652;23.040;2023-07-30T10:27:40;92799.75;;;30.20
28305;BMP280;15569;42.652;23.040;2023-07-30T10:30:10;92792.09;;;30.39
28305;BMP280;15569;42.652;23.040;2023-07-30T10:35:04;92780.72;;;30.84
28305;BMP280;15569;42.652;23.040;2023-07-30T10:37:30;92782.03;;;30.67
28305;BMP280;15569;42.652;23.040;2023-07-30T10:39:55;92778.09;;;30.99
28305;BMP280;15569;42.652;23.040;2023-07-30T10:42:21;92776.97;;;31.10
28305;BMP280;15569;42.652;23.040;2023-07-30T10:44:46;92779.78;;;31.10
28305;BMP280;15569;42.652;23.040;2023-07-30T10:47:12;92771.28;;;31.12
28305;BMP280;15569;42.652;23.040;2023-07-30T10:49:38;92767.88;;;31.28
28305;BMP280;15569;42.652;23.040;2023-07-30T10:52:04;92765.84;;;31.27
28305;BMP280;15569;42.652;23.040;2023-07-30T10:54:36;92765.38;;;31.57
28305;BMP280;15569;42.652;23.040;2023-07-30T10:57:02;92764.66;;;31.75
28305;BMP280;15569;42.652;23.040;2023-07-30T10:59:38;92760.38;;;31.95
28305;BMP280;15569;42.652;23.040;2023-07-30T11:02:04;92756.38;;;32.06
28305;BMP280;15569;42.652;23.040;2023-07-30T11:04:33;92751.19;;;32.29
28305;BMP280;15569;42.652;23.040;2023-07-30T11:06:59;92754.00;;;32.46
28305;BMP280;15569;42.652;23.040;2023-07-30T11:09:26;92742.66;;;32.65
28305;BMP280;15569;42.652;23.040;2023-07-30T11:11:53;92735.13;;;32.76
28305;BMP280;15569;42.652;23.040;2023-07-30T11:14:20;92736.59;;;32.75
28305;BMP280;15569;42.652;23.040;2023-07-30T11:16:51;92738.63;;;32.93
28305;BMP280;15569;42.652;23.040;2023-07-30T11:19:17;92737.88;;;33.09
28305;BMP280;15569;42.652;23.040;2023-07-30T11:21:51;92736.25;;;32.83
28305;BMP280;15569;42.652;23.040;2023-07-30T11:24:17;92730.72;;;32.64
28305;BMP280;15569;42.652;23.040;2023-07-30T11:26:43;92727.53;;;32.89
28305;BMP280;15569;42.652;23.040;2023-07-30T11:29:19;92731.19;;;32.85
28305;BMP280;15569;42.652;23.040;2023-07-30T11:31:45;92723.81;;;32.61
28305;BMP280;15569;42.652;23.040;2023-07-30T11:34:13;92720.03;;;33.14
28305;BMP280;15569;42.652;23.040;2023-07-30T11:36:38;92705.78;;;33.47
28305;BMP280;15569;42.652;23.040;2023-07-30T11:39:05;92709.41;;;33.75
28305;BMP280;15569;42.652;23.040;2023-07-30T11:41:31;92712.22;;;33.89
28305;BMP280;15569;42.652;23.040;2023-07-30T11:43:57;92711.06;;;34.26
28305;BMP280;15569;42.652;23.040;2023-07-30T11:46:22;92708.31;;;34.38
28305;BMP280;15569;42.652;23.040;2023-07-30T11:48:51;92698.41;;;34.52
28305;BMP280;15569;42.652;23.040;2023-07-30T11:51:24;92703.63;;;34.06
28305;BMP280;15569;42.652;23.040;2023-07-30T11:54:00;92702.88;;;33.64
28305;BMP280;15569;42.652;23.040;2023-07-30T11:56:31;92702.88;;;33.49
28305;BMP280;15569;42.652;23.040;2023-07-30T11:59:01;92695.59;;;34.25
28305;BMP280;15569;42.652;23.040;2023-07-30T12:01:29;92679.72;;;34.32
28305;BMP280;15569;42.652;23.040;2023-07-30T12:03:59;92690.63;;;34.52
28305;BMP280;15569;42.652;23.040;2023-07-30T12:06:38;92673.97;;;34.61
28305;BMP280;15569;42.652;23.040;2023-07-30T12:09:12;92675.44;;;33.91
28305;BMP280;15569;42.652;23.040;2023-07-30T12:11:56;92676.19;;;34.04
28305;BMP280;15569;42.652;23.040;2023-07-30T12:14:27;92670.81;;;33.42
28305;BMP280;15569;42.652;23.040;2023-07-30T12:16:57;92680.25;;;32.91
28305;BMP280;15569;42.652;23.040;2023-07-30T12:19:22;92679.38;;;32.95
28305;BMP280;15569;42.652;23.040;2023-07-30T12:21:48;92671.88;;;32.89
28305;BMP280;15569;42.652;23.040;2023-07-30T12:24:13;92675.34;;;32.27
28305;BMP280;15569;42.652;23.040;2023-07-30T12:26:39;92668.19;;;32.62
28305;BMP280;15569;42.652;23.040;2023-07-30T12:29:04;92669.84;;;33.62
28305;BMP280;15569;42.652;23.040;2023-07-30T12:31:29;92661.56;;;33.29
28305;BMP280;15569;42.652;23.040;2023-07-30T12:33:55;92657.78;;;32.58
28305;BMP280;15569;42.652;23.040;2023-07-30T12:36:20;92662.22;;;33.88
28305;BMP280;15569;42.652;23.040;2023-07-30T12:38:46;92650.59;;;33.67
28305;BMP280;15569;42.652;23.040;2023-07-30T12:41:11;92658.09;;;32.83
28305;BMP280;15569;42.652;23.040;2023-07-30T12:43:37;92647.91;;;32.28
28305;BMP280;15569;42.652;23.040;2023-07-30T12:46:02;92646.09;;;32.20
28305;BMP280;15569;42.652;23.040;2023-07-30T12:48:28;92642.69;;;33.11
28305;BMP280;15569;42.652;23.040;2023-07-30T12:50:53;92643.53;;;33.95
28305;BMP280;15569;42.652;23.040;2023-07-30T12:53:18;92642.56;;;33.86
28305;BMP280;15569;42.652;23.040;2023-07-30T12:55:44;92640.03;;;33.94
28305;BMP280;15569;42.652;23.040;2023-07-30T12:58:09;92639.97;;;33.53
28305;BMP280;15569;42.652;23.040;2023-07-30T13:00:35;92630.34;;;32.90
28305;BMP280;15569;42.652;23.040;2023-07-30T13:03:01;92632.19;;;32.33
28305;BMP280;15569;42.652;23.040;2023-07-30T13:05:27;92627.34;;;32.15
28305;BMP280;15569;42.652;23.040;2023-07-30T13:07:53;92625.28;;;32.30
28305;BMP280;15569;42.652;23.040;2023-07-30T13:10:18;92631.81;;;32.10
28305;BMP280;15569;42.652;23.040;2023-07-30T13:12:43;92628.44;;;31.72
28305;BMP280;15569;42.652;23.040;2023-07-30T13:15:09;92620.88;;;31.52
28305;BMP280;15569;42.652;23.040;2023-07-30T13:17:34;92614.84;;;31.79
28305;BMP280;15569;42.652;23.040;2023-07-30T13:20:00;92608.22;;;31.86
28305;BMP280;15569;42.652;23.040;2023-07-30T13:22:26;92612.34;;;31.87
28305;BMP280;15569;42.652;23.040;2023-07-30T13:24:51;92617.66;;;31.95
28305;BMP280;15569;42.652;23.040;2023-07-30T13:27:17;92611.94;;;31.97
28305;BMP280;15569;42.652;23.040;2023-07-30T13:29:43;92612.31;;;31.89
28305;BMP280;15569;42.652;23.040;2023-07-30T13:32:09;92611.75;;;31.85
28305;BMP280;15569;42.652;23.040;2023-07-30T13:34:34;92603.44;;;31.83
28305;BMP280;15569;42.652;23.040;2023-07-30T13:37:00;92606.94;;;31.83
28305;BMP280;15569;42.652;23.040;2023-07-30T13:39:27;92599.50;;;31.76
28305;BMP280;15569;42.652;23.040;2023-07-30T13:41:53;92607.06;;;31.79
28305;BMP280;15569;42.652;23.040;2023-07-30T13:44:19;92600.09;;;31.78
28305;BMP280;15569;42.652;23.040;2023-07-30T13:46:45;92601.03;;;31.73
28305;BMP280;15569;42.652;23.040;2023-07-30T13:49:10;92606.75;;;31.71
28305;BMP280;15569;42.652;23.040;2023-07-30T13:51:35;92605.81;;;31.60
28305;BMP280;15569;42.652;23.040;2023-07-30T13:54:01;92597.13;;;31.82
28305;BMP280;15569;42.652;23.040;2023-07-30T13:56:30;92590.13;;;31.81
28305;BMP280;15569;42.652;23.040;2023-07-30T13:58:56;92594.44;;;32.11